Time;durP1;ratioP1;P1;durP2;ratioP2;P2;SDS_P1;SDS_P2;PMS_P1;PMS_P2;Temp;Humidity;BMP_temperature;BMP_pressure;BME280_temperature;BME280_humidity;BME280_pressure;Samples;Min_cycle;Max_cycle;Signal;HPM_P1;HPM_P2
2022/07/02 00:01:46;;;;;;;4.23;1.57;;;16.00;99.90;;;;;;5087487;28;20256;-77
2022/07/02 00:04:16;;;;;;;4.70;1.33;;;16.00;99.90;;;;;;5086932;28;20209;-77
2022/07/02 00:06:44;;;;;;;9.17;1.87;;;15.90;99.90;;;;;;5077240;28;20216;-78
2022/07/02 00:09:14;;;;;;;4.13;1.70;;;15.90;99.90;;;;;;5080735;28;20204;-78
2022/07/02 00:11:42;;;;;;;3.53;1.80;;;15.80;99.90;;;;;;5074135;28;20209;-77
2022/07/02 00:14:10;;;;;;;4.40;1.75;;;15.80;99.90;;;;;;5087275;28;20215;-75
2022/07/02 00:16:38;;;;;;;7.83;1.80;;;15.70;99.90;;;;;;5085437;28;20201;-76
2022/07/02 00:19:05;;;;;;;7.00;1.70;;;15.70;99.90;;;;;;5078269;28;20787;-77
2022/07/02 00:21:33;;;;;;;3.95;1.48;;;15.70;99.90;;;;;;5087399;28;20228;-77
2022/07/02 00:24:00;;;;;;;8.47;2.40;;;15.60;99.90;;;;;;5080831;28;20212;-76
2022/07/02 00:26:32;;;;;;;7.20;2.10;;;15.60;99.90;;;;;;5073513;28;20209;-79
2022/07/02 00:29:04;;;;;;;4.60;1.80;;;15.60;99.90;;;;;;5084701;28;20401;-77
2022/07/02 00:31:35;;;;;;;3.80;1.63;;;15.60;99.90;;;;;;5081649;28;20210;-77
2022/07/02 00:34:02;;;;;;;7.83;2.17;;;15.50;99.90;;;;;;5090642;28;20203;-76
2022/07/02 00:36:32;;;;;;;7.40;1.87;;;15.50;99.90;;;;;;5095308;28;20234;-77
2022/07/02 00:39:00;;;;;;;4.30;1.50;;;15.50;99.90;;;;;;5092178;28;20212;-78
2022/07/02 00:41:29;;;;;;;5.63;1.90;;;15.50;99.90;;;;;;5081121;28;20228;-77
2022/07/02 00:43:56;;;;;;;4.73;1.90;;;15.50;99.90;;;;;;5086166;28;20224;-77
2022/07/02 00:46:24;;;;;;;5.33;1.93;;;15.40;99.90;;;;;;5086362;28;20208;-77
2022/07/02 00:48:51;;;;;;;2.80;1.93;;;15.40;99.90;;;;;;5081703;28;20211;-76
2022/07/02 00:51:18;;;;;;;8.00;1.63;;;15.40;99.90;;;;;;5086581;28;20215;-77
2022/07/02 00:53:45;;;;;;;5.80;2.10;;;15.40;99.90;;;;;;5085798;28;20242;-76
2022/07/02 00:56:12;;;;;;;7.13;1.97;;;15.40;99.90;;;;;;5077933;28;20216;-77
2022/07/02 00:58:40;;;;;;;10.17;2.20;;;15.40;99.90;;;;;;5086241;28;20211;-77
2022/07/02 01:01:07;;;;;;;5.20;2.20;;;15.40;99.90;;;;;;5086055;28;20228;-79
2022/07/02 01:03:36;;;;;;;5.27;2.10;;;15.30;99.90;;;;;;5076970;28;20600;-75
2022/07/02 01:06:03;;;;;;;8.02;1.90;;;15.30;99.90;;;;;;5075236;28;20211;-76
2022/07/02 01:11:18;;;;;;;5.43;1.90;;;15.30;99.90;;;;;;5082333;28;20330;-78
2022/07/02 01:13:47;;;;;;;3.90;1.60;;;15.20;99.90;;;;;;5085273;28;20206;-77
2022/07/02 01:16:14;;;;;;;6.33;1.80;;;15.20;99.90;;;;;;5084801;28;20212;-76
2022/07/02 01:18:41;;;;;;;3.97;1.50;;;15.20;99.90;;;;;;5085758;28;20208;-77
2022/07/02 01:21:07;;;;;;;6.40;1.87;;;15.10;99.90;;;;;;5074137;28;20676;-76
2022/07/02 01:23:36;;;;;;;9.37;2.00;;;15.10;99.90;;;;;;5085482;28;20215;-76
2022/07/02 01:26:03;;;;;;;5.47;2.03;;;15.10;99.90;;;;;;5084264;28;20208;-77
2022/07/02 01:28:30;;;;;;;4.30;2.00;;;15.10;99.90;;;;;;5083068;28;20210;-76
2022/07/02 01:30:57;;;;;;;6.67;1.93;;;15.10;99.90;;;;;;5085826;28;20236;-76
2022/07/02 01:33:24;;;;;;;5.87;1.90;;;15.00;99.90;;;;;;5084211;28;20262;-77
2022/07/02 01:35:51;;;;;;;6.33;2.20;;;15.00;99.90;;;;;;5067001;28;20201;-76
2022/07/02 01:38:18;;;;;;;4.97;1.93;;;15.00;99.90;;;;;;5080097;28;20248;-75
2022/07/02 01:40:46;;;;;;;6.40;1.73;;;15.10;99.90;;;;;;5086542;28;20211;-77
2022/07/02 01:43:13;;;;;;;7.97;2.00;;;15.00;99.90;;;;;;5079898;28;20224;-78
2022/07/02 01:45:40;;;;;;;6.63;2.10;;;15.00;99.90;;;;;;5085882;28;20234;-78
2022/07/02 01:48:07;;;;;;;6.80;1.77;;;15.00;99.90;;;;;;5085793;28;20204;-76
2022/07/02 01:50:36;;;;;;;6.07;1.43;;;15.00;99.90;;;;;;5085499;28;20208;-78
2022/07/02 01:53:03;;;;;;;5.27;2.03;;;15.00;99.90;;;;;;5078767;28;20281;-77
2022/07/02 01:55:30;;;;;;;6.70;1.77;;;15.00;99.90;;;;;;5085533;28;20204;-77
2022/07/02 01:57:58;;;;;;;4.07;1.80;;;15.00;99.90;;;;;;5072569;28;20215;-77
2022/07/02 02:00:25;;;;;;;3.33;1.77;;;15.00;99.90;;;;;;5085494;28;20209;-76
2022/07/02 02:02:52;;;;;;;3.13;1.77;;;15.00;99.90;;;;;;5084315;28;20226;-77
2022/07/02 02:05:19;;;;;;;4.40;1.50;;;15.00;99.90;;;;;;5085047;28;20205;-77
2022/07/02 02:07:46;;;;;;;4.33;1.60;;;14.90;99.90;;;;;;5070774;28;20197;-76
2022/07/02 02:10:12;;;;;;;4.77;1.80;;;14.90;99.90;;;;;;5079007;28;20231;-77
2022/07/02 02:12:39;;;;;;;6.20;2.00;;;14.90;99.90;;;;;;5085045;28;20204;-76
2022/07/02 02:15:08;;;;;;;3.97;1.80;;;14.90;99.90;;;;;;5085384;28;20211;-78
2022/07/02 02:17:35;;;;;;;5.00;1.93;;;14.90;99.90;;;;;;5084493;28;20588;-76
2022/07/02 02:20:02;;;;;;;6.10;1.83;;;14.90;99.90;;;;;;5076934;28;20205;-76
2022/07/02 02:22:29;;;;;;;7.50;1.40;;;14.90;99.90;;;;;;5084370;28;20243;-78
2022/07/02 02:24:55;;;;;;;5.10;1.60;;;14.90;99.90;;;;;;5084622;28;20205;-77
2022/07/02 02:27:22;;;;;;;3.20;1.40;;;14.90;99.90;;;;;;5084204;28;20597;-77
2022/07/02 02:29:49;;;;;;;6.63;1.80;;;14.90;99.90;;;;;;5084683;28;20209;-76
2022/07/02 02:32:17;;;;;;;4.47;1.60;;;14.90;99.90;;;;;;5079416;28;20192;-76
2022/07/02 02:34:44;;;;;;;5.17;1.80;;;14.90;99.90;;;;;;5084499;28;20218;-76
2022/07/02 02:37:11;;;;;;;4.03;1.40;;;14.90;99.90;;;;;;5073698;28;20535;-76
2022/07/02 02:39:38;;;;;;;5.43;1.33;;;14.90;99.90;;;;;;5083998;28;20216;-76
2022/07/02 02:42:06;;;;;;;4.20;1.40;;;14.80;99.90;;;;;;5084989;28;20365;-77
2022/07/02 02:44:33;;;;;;;4.43;1.50;;;14.80;99.90;;;;;;5071322;28;20219;-76
2022/07/02 02:46:59;;;;;;;7.63;1.60;;;14.80;99.90;;;;;;5084645;28;20212;-77
2022/07/02 02:49:28;;;;;;;5.70;1.87;;;14.80;99.90;;;;;;5082178;28;20204;-75
2022/07/02 02:51:55;;;;;;;7.03;1.47;;;14.80;99.90;;;;;;5084559;28;20219;-75
2022/07/02 02:54:22;;;;;;;6.33;1.43;;;14.70;99.90;;;;;;5084178;28;20215;-76
2022/07/02 02:56:48;;;;;;;5.63;1.80;;;14.70;99.90;;;;;;5076993;28;20681;-76
2022/07/02 02:59:15;;;;;;;4.97;1.77;;;14.70;99.90;;;;;;5078633;28;20204;-75
2022/07/02 03:01:42;;;;;;;3.97;1.50;;;14.70;99.90;;;;;;5084328;28;20208;-75
2022/07/02 03:04:09;;;;;;;6.83;1.33;;;14.60;99.90;;;;;;5084556;28;20212;-76
2022/07/02 03:06:37;;;;;;;3.97;1.30;;;14.60;99.90;;;;;;5071651;28;20208;-77
2022/07/02 03:09:04;;;;;;;5.80;1.70;;;14.60;99.90;;;;;;5083929;28;20289;-76
2022/07/02 03:11:31;;;;;;;6.47;1.60;;;14.60;99.90;;;;;;5083998;28;20188;-76
2022/07/02 03:13:58;;;;;;;1.80;1.17;;;14.60;99.90;;;;;;5084555;28;20532;-75
2022/07/02 03:16:25;;;;;;;5.10;1.70;;;14.60;99.90;;;;;;5081593;28;20623;-75
2022/07/02 03:18:52;;;;;;;4.30;1.20;;;14.60;99.90;;;;;;5079091;28;20205;-77
2022/07/02 03:21:19;;;;;;;3.00;1.67;;;14.50;99.90;;;;;;5075923;28;20216;-75
2022/07/02 03:23:47;;;;;;;3.57;1.50;;;14.50;99.90;;;;;;5088297;28;20628;-75
2022/07/02 03:26:14;;;;;;;4.70;1.30;;;14.60;99.90;;;;;;5084084;28;20208;-76
2022/07/02 03:28:41;;;;;;;4.37;1.30;;;14.50;99.90;;;;;;5087068;28;20291;-75
2022/07/02 03:31:08;;;;;;;2.90;1.10;;;14.60;99.90;;;;;;5088442;28;20218;-75
2022/07/02 03:33:34;;;;;;;4.77;1.53;;;14.60;99.90;;;;;;5086019;28;20204;-75
2022/07/02 03:36:01;;;;;;;3.30;1.53;;;14.50;99.90;;;;;;5087741;28;20211;-75
2022/07/02 03:38:28;;;;;;;5.47;2.20;;;14.50;99.90;;;;;;5076748;28;20240;-76
2022/07/02 03:40:57;;;;;;;7.20;1.60;;;14.50;99.90;;;;;;5088177;28;20626;-76
2022/07/02 03:43:23;;;;;;;3.37;1.33;;;14.50;99.90;;;;;;5087847;28;20232;-75
2022/07/02 03:45:50;;;;;;;10.33;1.90;;;14.50;99.90;;;;;;5075937;28;20211;-76
2022/07/02 03:48:17;;;;;;;4.23;1.63;;;14.50;99.90;;;;;;5088112;28;20212;-77
2022/07/02 03:50:44;;;;;;;6.93;1.93;;;14.50;99.90;;;;;;5087080;28;20299;-82
2022/07/02 03:53:11;;;;;;;6.50;1.80;;;14.50;99.90;;;;;;5083244;28;20223;-77
2022/07/02 03:55:38;;;;;;;8.27;1.90;;;14.60;99.90;;;;;;5080037;28;20780;-76
2022/07/02 03:58:06;;;;;;;3.90;1.70;;;14.50;99.90;;;;;;5088094;28;20231;-79
2022/07/02 04:00:33;;;;;;;4.73;1.63;;;14.50;99.90;;;;;;5079877;28;20212;-76
2022/07/02 04:03:00;;;;;;;4.13;1.60;;;14.50;99.90;;;;;;5087167;28;20216;-76
2022/07/02 04:05:27;;;;;;;4.73;1.70;;;14.50;99.90;;;;;;5083414;28;20227;-76
2022/07/02 04:07:54;;;;;;;2.50;1.33;;;14.50;99.90;;;;;;5087194;28;20607;-77
2022/07/02 04:10:21;;;;;;;3.43;1.60;;;14.50;99.90;;;;;;5085680;28;20220;-77
2022/07/02 04:12:48;;;;;;;3.27;1.63;;;14.50;99.90;;;;;;5087658;28;20209;-81
2022/07/02 04:15:16;;;;;;;3.43;1.60;;;14.40;99.90;;;;;;5087109;28;20259;-76
2022/07/02 04:17:43;;;;;;;5.47;1.70;;;14.40;99.90;;;;;;5072925;28;20204;-76
2022/07/02 04:20:11;;;;;;;5.23;2.37;;;14.40;99.90;;;;;;5081452;28;20613;-75
2022/07/02 04:22:38;;;;;;;4.03;1.50;;;14.50;99.90;;;;;;5078618;28;20874;-77
2022/07/02 04:25:05;;;;;;;3.80;1.67;;;14.50;99.90;;;;;;5082984;28;20768;-76
2022/07/02 04:27:32;;;;;;;2.77;1.60;;;14.60;99.90;;;;;;5066971;28;20205;-76
2022/07/02 04:29:59;;;;;;;3.67;1.40;;;14.70;99.90;;;;;;5083185;28;20216;-77
2022/07/02 04:32:27;;;;;;;3.03;1.40;;;14.80;99.90;;;;;;5086679;28;20571;-77
2022/07/02 04:34:54;;;;;;;3.80;1.87;;;14.90;99.90;;;;;;5078283;28;20216;-76
2022/07/02 04:37:21;;;;;;;3.23;1.50;;;15.00;99.90;;;;;;5087226;28;20241;-77
2022/07/02 04:39:48;;;;;;;4.47;1.50;;;15.00;99.90;;;;;;5086224;28;20630;-77
2022/07/02 04:42:15;;;;;;;5.70;2.00;;;15.00;99.90;;;;;;5082714;28;20216;-76
2022/07/02 04:44:41;;;;;;;5.47;1.80;;;15.00;99.90;;;;;;5085036;28;20517;-76
2022/07/02 04:47:08;;;;;;;4.37;2.10;;;15.00;99.90;;;;;;5087029;28;20213;-76
2022/07/02 04:49:37;;;;;;;3.53;1.40;;;15.00;99.90;;;;;;5084811;28;20208;-75
2022/07/02 04:52:04;;;;;;;4.37;1.70;;;15.00;99.90;;;;;;5086476;28;20204;-76
2022/07/02 04:54:31;;;;;;;4.13;1.80;;;15.00;99.90;;;;;;5084346;28;20580;-76
2022/07/02 04:56:58;;;;;;;9.97;2.47;;;15.00;99.90;;;;;;5075918;28;20652;-77
2022/07/02 04:59:25;;;;;;;3.97;2.00;;;15.10;99.90;;;;;;5086241;28;20204;-76
2022/07/02 05:01:52;;;;;;;5.63;2.07;;;15.10;99.90;;;;;;5082320;28;20558;-76
2022/07/02 05:04:19;;;;;;;7.23;2.13;;;15.20;99.90;;;;;;5081472;28;20232;-77
2022/07/02 05:06:48;;;;;;;5.87;1.70;;;15.30;99.90;;;;;;5078033;28;20214;-77
2022/07/02 05:09:14;;;;;;;7.43;2.33;;;15.30;99.90;;;;;;5086650;28;20240;-76
2022/07/02 05:11:41;;;;;;;4.93;1.60;;;15.40;99.90;;;;;;5085933;28;20204;-76
2022/07/02 05:14:08;;;;;;;6.00;2.10;;;15.50;99.90;;;;;;5085775;28;20204;-76
2022/07/02 05:16:35;;;;;;;3.55;1.25;;;15.60;99.90;;;;;;5086184;28;20200;-78
2022/07/02 05:19:02;;;;;;;4.20;1.50;;;15.70;99.90;;;;;;5080491;28;20201;-76
2022/07/02 05:21:29;;;;;;;3.75;1.60;;;15.90;99.90;;;;;;5081651;28;20201;-77
2022/07/02 05:23:57;;;;;;;5.13;2.13;;;16.10;99.90;;;;;;5086377;28;20514;-78
2022/07/02 05:26:24;;;;;;;3.45;1.73;;;16.20;99.90;;;;;;5086336;28;20201;-77
2022/07/02 05:28:51;;;;;;;6.45;1.65;;;16.50;99.90;;;;;;5070491;28;20211;-77
2022/07/02 05:31:18;;;;;;;5.22;1.70;;;16.70;99.90;;;;;;5079300;28;20295;-76
2022/07/02 05:33:45;;;;;;;4.80;1.60;;;17.00;99.90;;;;;;5085098;28;20208;-76
2022/07/02 05:36:12;;;;;;;5.53;1.80;;;17.30;99.90;;;;;;5084684;28;20196;-78
2022/07/02 05:38:39;;;;;;;3.28;1.60;;;17.60;99.90;;;;;;5085830;28;20232;-76
2022/07/02 05:41:07;;;;;;;2.28;1.13;;;17.90;99.90;;;;;;5085224;28;20306;-76
2022/07/02 05:43:34;;;;;;;4.13;1.60;;;18.20;99.90;;;;;;5082600;28;20270;-77
2022/07/02 05:46:01;;;;;;;8.85;1.60;;;18.60;99.90;;;;;;5084588;28;20295;-77
2022/07/02 05:48:28;;;;;;;6.03;1.60;;;18.90;99.90;;;;;;5085299;28;20667;-78
2022/07/02 05:50:55;;;;;;;5.07;1.55;;;19.20;99.90;;;;;;5077373;28;20205;-76
2022/07/02 05:53:22;;;;;;;2.72;1.40;;;19.50;99.90;;;;;;5085567;28;20227;-76
2022/07/02 05:55:49;;;;;;;5.22;1.65;;;19.80;99.90;;;;;;5084041;28;20624;-77
2022/07/02 05:58:17;;;;;;;3.90;1.67;;;20.10;99.90;;;;;;5084668;28;20210;-77
2022/07/02 06:00:44;;;;;;;4.18;1.30;;;20.40;99.90;;;;;;5074156;28;20311;-78
2022/07/02 06:03:11;;;;;;;4.15;1.30;;;20.70;99.90;;;;;;5084096;28;20220;-77
2022/07/02 06:08:22;;;;;;;6.32;1.52;;;21.30;99.90;;;;;;5084890;28;20207;-76
2022/07/02 06:10:49;;;;;;;4.55;1.40;;;21.60;99.90;;;;;;5078544;28;20219;-77
2022/07/02 06:13:17;;;;;;;3.45;1.23;;;21.80;99.90;;;;;;5083818;28;20781;-78
2022/07/02 06:15:44;;;;;;;5.28;1.58;;;22.00;99.90;;;;;;5075771;28;20204;-77
2022/07/02 06:18:12;;;;;;;4.45;1.50;;;22.20;99.90;;;;;;5084585;28;20207;-78
2022/07/02 06:20:39;;;;;;;4.43;1.35;;;22.20;99.90;;;;;;5084321;28;20345;-76
2022/07/02 06:23:06;;;;;;;6.07;1.60;;;22.40;99.90;;;;;;5080053;28;20655;-76
2022/07/02 06:25:33;;;;;;;4.25;1.67;;;22.60;99.90;;;;;;5084317;28;20206;-77
2022/07/02 06:28:00;;;;;;;6.95;1.85;;;22.70;99.90;;;;;;5084991;28;20517;-77
2022/07/02 06:30:29;;;;;;;5.88;1.70;;;22.80;99.90;;;;;;5084199;28;20295;-78
2022/07/02 06:32:56;;;;;;;4.47;1.30;;;23.00;99.90;;;;;;5080678;28;20215;-78
2022/07/02 06:35:23;;;;;;;8.35;1.27;;;23.10;99.90;;;;;;5082852;28;20208;-76
2022/07/02 06:37:50;;;;;;;7.75;1.98;;;23.30;99.90;;;;;;5082956;28;20401;-78
2022/07/02 06:40:17;;;;;;;8.00;1.60;;;23.40;99.90;;;;;;5084458;28;21044;-77
2022/07/02 06:42:44;;;;;;;5.95;1.77;;;23.40;99.90;;;;;;5069655;28;20207;-76
2022/07/02 06:45:11;;;;;;;6.35;1.90;;;23.40;99.90;;;;;;5083584;28;20604;-78
2022/07/02 06:47:43;;;;;;;5.97;1.38;;;23.40;99.90;;;;;;5074790;28;20542;-77
2022/07/02 06:50:11;;;;;;;9.30;1.77;;;23.60;99.90;;;;;;5084052;28;20216;-78
2022/07/02 06:52:38;;;;;;;5.82;1.30;;;23.60;99.90;;;;;;5083603;28;20235;-78
2022/07/02 06:55:06;;;;;;;4.88;1.40;;;23.50;99.90;;;;;;5083589;28;20205;-77
2022/07/02 06:57:35;;;;;;;5.93;1.33;;;23.70;99.90;;;;;;5088066;28;20296;-77
2022/07/02 07:00:02;;;;;;;4.65;1.30;;;23.60;99.90;;;;;;5084134;28;20207;-76
2022/07/02 07:02:29;;;;;;;4.32;1.40;;;23.70;99.90;;;;;;5087870;28;20313;-76
2022/07/02 07:04:57;;;;;;;6.75;1.45;;;23.90;99.90;;;;;;5070516;28;20222;-78
2022/07/02 07:07:27;;;;;;;6.82;1.98;;;23.90;99.90;;;;;;5079526;28;20242;-78
2022/07/02 07:09:54;;;;;;;5.78;1.25;;;24.10;99.90;;;;;;5088445;28;20211;-77
2022/07/02 07:12:21;;;;;;;2.13;1.23;;;24.30;99.90;;;;;;5082128;28;20205;-77
2022/07/02 07:14:48;;;;;;;4.00;1.40;;;24.50;99.90;;;;;;5093073;28;20208;-78
2022/07/02 07:17:16;;;;;;;5.18;1.40;;;24.80;99.90;;;;;;5087157;28;20499;-77
2022/07/02 07:19:43;;;;;;;5.88;1.55;;;25.00;99.90;;;;;;5100623;28;20216;-78
2022/07/02 07:22:11;;;;;;;3.17;1.00;;;24.80;99.90;;;;;;5098298;28;20221;-79
2022/07/02 07:24:38;;;;;;;3.15;1.35;;;24.60;99.90;;;;;;5091806;28;20920;-79
2022/07/02 07:27:05;;;;;;;6.03;1.30;;;24.50;99.90;;;;;;5097723;28;20196;-77
2022/07/02 07:29:32;;;;;;;6.53;1.52;;;24.60;99.90;;;;;;5090599;28;20725;-77
2022/07/02 07:31:58;;;;;;;8.55;1.45;;;24.80;99.90;;;;;;5086646;28;20196;-76
2022/07/02 07:34:25;;;;;;;6.05;1.15;;;25.10;99.90;;;;;;5086797;28;20205;-78
2022/07/02 07:36:55;;;;;;;3.53;1.20;;;25.40;99.90;;;;;;5084925;28;20251;-78
2022/07/02 07:39:23;;;;;;;5.53;1.60;;;25.70;99.90;;;;;;5077130;28;20211;-77
2022/07/02 07:41:50;;;;;;;4.43;1.38;;;25.90;99.90;;;;;;5086745;28;20612;-78
2022/07/02 07:44:17;;;;;;;5.63;1.10;;;26.10;99.90;;;;;;5086101;28;20231;-79
2022/07/02 07:46:44;;;;;;;3.78;1.20;;;26.00;99.90;;;;;;5087196;28;20211;-80
2022/07/02 07:49:11;;;;;;;2.35;0.95;;;25.70;99.90;;;;;;5078758;28;20212;-78
2022/07/02 07:51:38;;;;;;;4.53;1.45;;;25.80;99.90;;;;;;5085731;28;20242;-77
2022/07/02 07:54:05;;;;;;;2.38;0.80;;;25.90;99.90;;;;;;5081415;28;20231;-79
2022/07/02 07:56:33;;;;;;;4.32;1.27;;;25.90;99.90;;;;;;5081141;28;20811;-79
2022/07/02 07:59:00;;;;;;;2.50;0.90;;;26.20;99.90;;;;;;5080168;28;20208;-79
2022/07/02 08:01:27;;;;;;;5.18;0.85;;;26.20;99.90;;;;;;5087054;28;20243;-79
2022/07/02 08:03:54;;;;;;;2.78;1.10;;;26.30;99.90;;;;;;5082739;28;20332;-78
2022/07/02 08:06:21;;;;;;;3.63;1.00;;;26.60;99.90;;;;;;5084027;28;20274;-78
2022/07/02 08:08:48;;;;;;;2.75;1.10;;;26.90;99.90;;;;;;5084578;28;20212;-77
2022/07/02 08:11:15;;;;;;;3.60;1.05;;;26.90;99.90;;;;;;5082617;28;20228;-78
2022/07/02 08:13:43;;;;;;;3.70;1.20;;;27.00;99.90;;;;;;5086498;28;20593;-78
2022/07/02 08:16:10;;;;;;;3.28;0.85;;;27.20;99.90;;;;;;5073285;28;20217;-78
2022/07/02 08:18:37;;;;;;;3.05;1.10;;;27.20;99.90;;;;;;5087135;28;20211;-79
2022/07/02 08:21:04;;;;;;;7.82;1.75;;;27.30;99.90;;;;;;5086799;28;20208;-78
2022/07/02 08:23:31;;;;;;;3.83;0.90;;;27.40;99.90;;;;;;5077125;28;20236;-79
2022/07/02 08:25:58;;;;;;;1.45;0.88;;;27.50;99.90;;;;;;5086683;28;20588;-79
2022/07/02 08:28:25;;;;;;;3.35;1.20;;;27.50;99.90;;;;;;5083479;28;20205;-78
2022/07/02 08:30:53;;;;;;;1.38;0.90;;;27.80;99.90;;;;;;5069008;28;20197;-79
2022/07/02 08:33:20;;;;;;;2.85;0.80;;;27.70;99.90;;;;;;5082579;28;20213;-79
2022/07/02 08:35:47;;;;;;;2.03;0.85;;;27.90;99.90;;;;;;5079583;28;20206;-79
2022/07/02 08:38:14;;;;;;;3.78;0.80;;;28.00;99.90;;;;;;5079702;28;20236;-78
2022/07/02 08:40:43;;;;;;;1.70;0.60;;;27.90;99.90;;;;;;5085588;28;20204;-77
2022/07/02 08:43:13;;;;;;;2.85;1.15;;;27.80;99.90;;;;;;5075452;28;20216;-80
2022/07/02 08:45:41;;;;;;;2.80;0.77;;;27.90;99.90;;;;;;5085263;28;20232;-78
2022/07/02 08:48:11;;;;;;;2.30;1.00;;;27.90;99.90;;;;;;5086020;28;20529;-80
2022/07/02 08:50:38;;;;;;;5.65;1.10;;;27.90;99.90;;;;;;5076229;28;20288;-80
2022/07/02 08:53:07;;;;;;;2.00;0.85;;;27.90;99.90;;;;;;5085083;28;20539;-78
2022/07/02 08:55:35;;;;;;;1.80;0.52;;;27.90;99.90;;;;;;5085806;28;20532;-78
2022/07/02 08:58:02;;;;;;;3.58;0.70;;;28.00;99.90;;;;;;5072161;28;20208;-78
2022/07/02 09:00:29;;;;;;;2.95;0.70;;;28.10;99.90;;;;;;5085429;28;20205;-79
2022/07/02 09:02:58;;;;;;;1.90;0.73;;;28.10;99.90;;;;;;5076344;28;20197;-76
2022/07/02 09:05:28;;;;;;;2.03;0.85;;;27.70;99.90;;;;;;5085114;28;20695;-79
2022/07/02 09:07:56;;;;;;;1.95;0.98;;;27.70;99.90;;;;;;5081879;28;20544;-79
2022/07/02 09:10:25;;;;;;;2.10;0.70;;;27.70;99.90;;;;;;5086132;28;20288;-81
2022/07/02 09:12:53;;;;;;;1.90;0.77;;;27.80;99.90;;;;;;5083699;28;20511;-77
2022/07/02 09:15:20;;;;;;;2.72;0.70;;;27.70;99.90;;;;;;5085761;28;20704;-80
2022/07/02 09:17:47;;;;;;;2.97;0.70;;;27.80;99.90;;;;;;5083941;28;20208;-80
2022/07/02 09:20:14;;;;;;;1.75;0.60;;;27.90;99.90;;;;;;5070640;28;20208;-77
2022/07/02 09:22:44;;;;;;;1.23;0.57;;;28.00;99.90;;;;;;5084939;28;20212;-78
2022/07/02 09:25:14;;;;;;;3.25;0.70;;;28.20;99.90;;;;;;5085761;28;20208;-75
2022/07/02 09:27:41;;;;;;;3.33;0.50;;;28.30;99.90;;;;;;5083012;28;20583;-81
2022/07/02 09:30:10;;;;;;;1.67;0.60;;;28.30;99.90;;;;;;5083001;28;20208;-80
2022/07/02 09:32:42;;;;;;;2.13;0.70;;;28.10;99.90;;;;;;5085550;28;20211;-77
2022/07/02 09:35:17;;;;;;;3.20;0.70;;;28.10;99.90;;;;;;5076853;28;20201;-78
2022/07/02 09:37:46;;;;;;;2.13;0.70;;;28.10;99.90;;;;;;5084674;28;20582;-77
2022/07/02 09:40:14;;;;;;;1.73;0.82;;;28.20;99.90;;;;;;5084679;28;20204;-84
2022/07/02 09:42:46;;;;;;;2.53;0.80;;;28.30;99.90;;;;;;5085536;28;20219;-79
2022/07/02 09:45:14;;;;;;;2.80;1.00;;;28.30;99.90;;;;;;5073071;28;20213;-79
2022/07/02 09:47:44;;;;;;;3.35;0.93;;;28.60;99.90;;;;;;5082396;28;20718;-77
2022/07/02 09:50:13;;;;;;;1.63;0.70;;;28.70;99.90;;;;;;5073608;28;20241;-79
2022/07/02 09:52:49;;;;;;;2.35;0.68;;;28.80;99.90;;;;;;5072852;28;20239;-80
2022/07/02 09:55:21;;;;;;;1.80;0.77;;;28.60;99.90;;;;;;5085550;28;20202;-80
2022/07/02 09:57:52;;;;;;;1.45;0.60;;;28.70;99.90;;;;;;5075224;28;20846;-77
2022/07/02 10:00:19;;;;;;;0.93;0.50;;;28.50;99.90;;;;;;5079418;28;20546;-80
2022/07/02 10:02:51;;;;;;;2.58;1.25;;;28.80;99.90;;;;;;5079911;28;20668;-79
2022/07/02 10:05:24;;;;;;;1.88;0.88;;;29.00;99.90;;;;;;5080935;28;20217;-79
2022/07/02 10:07:53;;;;;;;2.40;0.90;;;29.20;99.90;;;;;;5080244;28;20201;-78
2022/07/02 10:10:27;;;;;;;1.90;0.73;;;29.10;99.90;;;;;;5075668;28;20216;-79
2022/07/02 10:12:56;;;;;;;2.17;0.77;;;29.00;99.90;;;;;;5084487;28;20204;-79
2022/07/02 10:15:25;;;;;;;1.75;0.90;;;28.90;99.90;;;;;;5081191;28;20254;-79
2022/07/02 10:17:55;;;;;;;2.05;1.13;;;28.80;99.90;;;;;;5068298;28;20233;-78
2022/07/02 10:20:23;;;;;;;1.23;0.60;;;29.00;99.90;;;;;;5084678;28;20200;-78
2022/07/02 10:22:52;;;;;;;0.93;0.63;;;29.10;99.90;;;;;;5083125;28;20204;-78
2022/07/02 10:25:19;;;;;;;3.38;0.88;;;29.00;99.90;;;;;;5084083;28;20633;-78
2022/07/02 10:27:47;;;;;;;1.10;0.52;;;28.90;99.90;;;;;;5080306;28;20208;-79
2022/07/02 10:30:15;;;;;;;1.17;0.60;;;29.00;99.90;;;;;;5083244;28;20201;-78
2022/07/02 10:32:49;;;;;;;3.28;0.80;;;29.00;99.90;;;;;;5076638;28;20220;-78
2022/07/02 10:35:17;;;;;;;3.10;0.90;;;28.90;99.90;;;;;;5080420;28;20196;-77
2022/07/02 10:37:44;;;;;;;2.90;0.80;;;28.80;99.90;;;;;;5073120;28;20237;-77
2022/07/02 10:40:17;;;;;;;2.35;0.90;;;28.70;99.90;;;;;;5084294;28;20213;-78
2022/07/02 10:42:48;;;;;;;2.35;0.90;;;28.60;99.90;;;;;;5078637;28;20597;-80
2022/07/02 10:45:16;;;;;;;1.98;0.88;;;28.60;99.90;;;;;;5075480;28;20703;-79
2022/07/02 10:48:03;;;;;;;1.50;0.63;;;28.40;99.90;;;;;;5083181;28;20204;-78
2022/07/02 10:50:40;;;;;;;2.28;1.00;;;28.30;99.90;;;;;;5076510;28;20212;-78
2022/07/02 10:53:09;;;;;;;2.90;0.82;;;28.40;99.90;;;;;;5070750;28;20224;-80
2022/07/02 10:55:38;;;;;;;2.85;1.08;;;28.20;99.90;;;;;;5083874;28;20200;-77
2022/07/02 10:58:06;;;;;;;0.90;0.60;;;28.20;99.90;;;;;;5073422;28;20215;-78
2022/07/02 11:00:35;;;;;;;3.00;0.80;;;28.20;99.90;;;;;;5083865;28;20204;-79
2022/07/02 11:03:14;;;;;;;1.42;0.70;;;28.50;99.90;;;;;;5084102;28;20207;-80
2022/07/02 11:06:02;;;;;;;2.00;0.70;;;28.60;99.90;;;;;;5080000;28;20228;-77
2022/07/02 11:08:47;;;;;;;2.38;0.60;;;28.60;99.90;;;;;;5070469;28;20567;-79
2022/07/02 11:11:21;;;;;;;2.85;0.90;;;28.40;99.90;;;;;;5083825;28;20197;-79
2022/07/02 11:13:51;;;;;;;2.63;1.05;;;28.30;99.90;;;;;;5083786;28;20481;-83
2022/07/02 11:16:23;;;;;;;4.35;0.85;;;28.30;99.90;;;;;;5085067;28;20209;-81
2022/07/02 11:18:51;;;;;;;1.45;0.60;;;28.00;99.90;;;;;;5086258;28;20197;-78
2022/07/02 11:21:19;;;;;;;2.78;0.60;;;27.80;99.90;;;;;;5073199;28;20324;-78
2022/07/02 11:23:45;;;;;;;3.88;0.88;;;27.40;99.90;;;;;;5087577;28;20506;-79
2022/07/02 11:26:18;;;;;;;3.03;0.63;;;27.30;99.90;;;;;;5085639;28;20537;-84
2022/07/02 11:28:45;;;;;;;1.33;0.50;;;27.10;99.90;;;;;;5071379;28;20211;-80
2022/07/02 11:31:13;;;;;;;4.35;0.70;;;27.20;99.90;;;;;;5085701;28;20296;-80
2022/07/02 11:33:47;;;;;;;1.60;0.70;;;27.20;99.90;;;;;;5068612;28;20204;-80
2022/07/02 11:36:14;;;;;;;1.80;0.50;;;27.40;99.90;;;;;;5086437;28;20201;-80
2022/07/02 11:38:43;;;;;;;2.45;0.90;;;27.70;99.90;;;;;;5083031;28;20242;-81
2022/07/02 11:41:23;;;;;;;1.95;0.88;;;27.80;99.90;;;;;;5084519;28;20212;-78
2022/07/02 11:43:51;;;;;;;1.33;0.57;;;27.70;99.90;;;;;;5087124;28;20516;-79
2022/07/02 11:46:20;;;;;;;1.50;0.50;;;27.70;99.90;;;;;;5088969;28;20228;-80
2022/07/02 11:48:48;;;;;;;5.68;0.50;;;28.00;99.90;;;;;;5076846;28;20209;-80
2022/07/02 11:51:15;;;;;;;1.48;0.60;;;27.70;99.90;;;;;;5087157;28;20227;-80
2022/07/02 11:53:42;;;;;;;2.00;0.70;;;27.70;99.90;;;;;;5078199;28;20255;-81
2022/07/02 11:56:11;;;;;;;3.28;0.85;;;27.80;99.90;;;;;;5086377;28;20199;-80
2022/07/02 11:58:49;;;;;;;3.92;1.45;;;27.80;99.90;;;;;;5087909;28;20876;-82
2022/07/02 12:01:24;;;;;;;1.60;1.10;;;27.80;99.90;;;;;;5087251;28;20200;-80
2022/07/02 12:03:52;;;;;;;2.40;1.10;;;27.90;99.90;;;;;;5084124;28;20200;-80
2022/07/02 12:06:20;;;;;;;1.40;0.95;;;27.80;99.90;;;;;;5087030;28;20224;-78
2022/07/02 12:08:47;;;;;;;1.23;0.63;;;27.70;99.90;;;;;;5085892;28;20206;-79
2022/07/02 12:11:16;;;;;;;1.45;1.02;;;27.40;99.90;;;;;;5083157;28;20200;-79
2022/07/02 12:13:43;;;;;;;2.17;0.60;;;27.10;99.90;;;;;;5085905;28;20213;-82
2022/07/02 12:16:14;;;;;;;1.67;0.85;;;27.00;99.90;;;;;;5086286;28;20211;-79
2022/07/02 12:18:41;;;;;;;2.97;1.08;;;26.90;99.90;;;;;;5079105;28;20235;-78
2022/07/02 12:21:10;;;;;;;5.00;1.17;;;26.90;99.90;;;;;;5086649;28;20205;-81
2022/07/02 12:23:47;;;;;;;4.65;1.40;;;26.60;99.90;;;;;;5085528;28;20208;-78
2022/07/02 12:26:23;;;;;;;2.67;1.02;;;26.70;99.90;;;;;;5069053;28;20213;-80
2022/07/02 12:31:48;;;;;;;2.38;0.85;;;26.70;99.90;;;;;;5086256;28;20342;-80
2022/07/02 12:34:15;;;;;;;1.85;0.82;;;26.70;99.90;;;;;;5082642;28;20536;-78
2022/07/02 12:36:52;;;;;;;1.58;0.70;;;26.60;99.90;;;;;;5072423;28;20224;-79
2022/07/02 12:39:19;;;;;;;1.67;0.88;;;26.40;99.90;;;;;;5080095;28;20215;-81
2022/07/02 12:41:46;;;;;;;2.35;0.80;;;26.20;99.90;;;;;;5070715;28;20205;-81
2022/07/02 12:44:18;;;;;;;2.08;1.20;;;26.30;99.90;;;;;;5078642;28;20219;-81
2022/07/02 12:46:49;;;;;;;1.30;0.90;;;26.30;99.90;;;;;;5076066;28;20606;-79
2022/07/02 12:49:22;;;;;;;2.53;0.95;;;26.40;99.90;;;;;;5072203;28;20213;-81
2022/07/02 12:51:53;;;;;;;1.60;1.08;;;26.40;99.90;;;;;;5075118;28;20204;-80
2022/07/02 12:54:20;;;;;;;2.03;0.82;;;26.40;99.90;;;;;;5080714;28;20212;-78
2022/07/02 12:56:47;;;;;;;2.58;1.10;;;26.40;99.90;;;;;;5073741;28;20204;-81
2022/07/02 12:59:13;;;;;;;3.75;0.98;;;26.10;99.90;;;;;;5074852;28;20226;-81
2022/07/02 13:01:40;;;;;;;3.50;1.23;;;26.00;99.90;;;;;;5076950;28;20218;-81